Time;durP1;ratioP1;P1;durP2;ratioP2;P2;SDS_P1;SDS_P2;PMS_P1;PMS_P2;Temp;Humidity;BMP_temperature;BMP_pressure;BME280_temperature;BME280_humidity;BME280_pressure;Samples;Min_cycle;Max_cycle;Signal;HPM_P1;HPM_P2
2021/03/19 00:00:27;;;;;;;17.83;4.40;;;4.80;99.90;;;;;;5007996;28;20201;-70
2021/03/19 00:02:55;;;;;;;16.17;4.43;;;4.70;99.90;;;;;;5010685;28;20331;-70
2021/03/19 00:05:28;;;;;;;14.73;4.60;;;4.70;99.90;;;;;;5008854;28;20213;-69
2021/03/19 00:07:58;;;;;;;21.07;4.57;;;4.60;99.90;;;;;;5010325;28;20209;-70
2021/03/19 00:10:28;;;;;;;14.27;3.90;;;4.60;99.90;;;;;;5009775;28;20241;-70
2021/03/19 00:12:57;;;;;;;12.90;4.07;;;4.50;99.90;;;;;;5008799;28;20586;-70
2021/03/19 00:15:26;;;;;;;15.27;4.03;;;4.50;99.90;;;;;;5008652;28;20274;-70
2021/03/19 00:17:58;;;;;;;11.63;4.40;;;4.40;99.90;;;;;;5008523;28;20202;-70
2021/03/19 00:20:30;;;;;;;11.43;4.03;;;4.30;99.90;;;;;;5009347;28;20229;-68
2021/03/19 00:22:59;;;;;;;13.57;4.13;;;4.30;99.90;;;;;;5008841;28;20229;-70
2021/03/19 00:25:27;;;;;;;13.90;3.90;;;4.20;99.90;;;;;;5008266;28;20222;-70
2021/03/19 00:27:55;;;;;;;7.97;3.80;;;4.10;99.90;;;;;;5010438;28;20198;-70
2021/03/19 00:30:23;;;;;;;11.10;3.50;;;4.10;99.90;;;;;;5007487;28;20194;-69
2021/03/19 00:32:51;;;;;;;10.77;3.57;;;4.00;99.90;;;;;;5007957;28;20198;-70
2021/03/19 00:35:20;;;;;;;10.50;3.90;;;4.00;99.90;;;;;;5007441;28;20196;-70
2021/03/19 00:37:47;;;;;;;14.00;4.53;;;3.90;99.90;;;;;;5010281;28;20198;-68
2021/03/19 00:40:17;;;;;;;12.80;3.73;;;3.80;99.90;;;;;;5009232;28;20281;-69
2021/03/19 00:42:45;;;;;;;8.13;3.43;;;3.70;99.90;;;;;;5004316;28;20569;-69
2021/03/19 00:45:15;;;;;;;12.20;3.50;;;3.70;99.90;;;;;;5007969;28;20206;-68
2021/03/19 00:47:49;;;;;;;12.93;3.67;;;3.60;99.90;;;;;;5008561;28;20204;-69
2021/03/19 00:50:26;;;;;;;8.47;3.50;;;3.60;99.90;;;;;;5008655;28;20218;-70
2021/03/19 00:52:54;;;;;;;7.07;3.10;;;3.50;99.90;;;;;;5008835;28;20221;-68
2021/03/19 00:55:24;;;;;;;15.83;4.00;;;3.40;99.90;;;;;;5005853;28;20293;-70
2021/03/19 00:57:51;;;;;;;10.33;3.70;;;3.30;99.90;;;;;;5008846;28;20256;-68
2021/03/19 01:00:25;;;;;;;11.80;3.67;;;3.30;99.90;;;;;;5009267;28;20201;-70
2021/03/19 01:02:55;;;;;;;7.77;3.40;;;3.30;99.90;;;;;;5010200;28;20194;-70
2021/03/19 01:05:24;;;;;;;14.43;3.67;;;3.30;99.90;;;;;;5008307;28;20206;-70
2021/03/19 01:07:52;;;;;;;11.17;4.27;;;3.20;99.90;;;;;;5009716;28;20281;-68
2021/03/19 01:10:23;;;;;;;11.63;3.73;;;3.20;99.90;;;;;;5009390;28;20226;-70
2021/03/19 01:12:50;;;;;;;8.77;3.90;;;3.10;99.90;;;;;;5008294;28;20301;-69
2021/03/19 01:15:18;;;;;;;10.83;3.83;;;3.10;99.90;;;;;;5009409;28;20194;-70
2021/03/19 01:17:46;;;;;;;8.97;3.23;;;3.10;99.90;;;;;;5009341;28;20194;-70
2021/03/19 01:20:15;;;;;;;6.10;3.20;;;3.00;99.90;;;;;;5007543;28;20189;-69
2021/03/19 01:22:43;;;;;;;8.37;3.77;;;3.00;99.90;;;;;;5008257;28;20202;-70
2021/03/19 01:25:13;;;;;;;14.40;4.30;;;2.90;99.90;;;;;;5007864;28;20306;-69
2021/03/19 01:27:41;;;;;;;13.30;3.67;;;2.90;99.90;;;;;;5004867;28;20226;-70
2021/03/19 01:30:11;;;;;;;8.57;3.50;;;2.80;99.90;;;;;;5010710;28;20225;-70
2021/03/19 01:32:39;;;;;;;6.67;3.20;;;2.80;99.90;;;;;;5015770;28;20668;-64
2021/03/19 01:35:08;;;;;;;6.03;3.43;;;2.70;99.90;;;;;;5013460;28;20229;-70
2021/03/19 01:37:35;;;;;;;10.80;3.20;;;2.70;99.90;;;;;;5015097;28;20186;-69
2021/03/19 01:40:04;;;;;;;9.67;3.40;;;2.60;99.90;;;;;;5015117;28;20233;-70
2021/03/19 01:42:32;;;;;;;12.93;3.63;;;2.60;99.90;;;;;;5014894;28;20244;-70
2021/03/19 01:45:38;;;;;;;7.77;3.27;;;2.60;99.90;;;;;;5014771;28;20715;-68
2021/03/19 01:48:43;;;;;;;4.90;3.10;;;2.50;99.90;;;;;;5012184;28;20200;-70
2021/03/19 01:51:49;;;;;;;5.90;3.13;;;2.50;99.90;;;;;;5013941;28;20197;-70
2021/03/19 01:54:54;;;;;;;8.60;3.40;;;2.50;99.90;;;;;;5014292;28;20202;-70
2021/03/19 01:57:58;;;;;;;12.50;3.83;;;2.40;99.90;;;;;;5014898;28;20189;-70
2021/03/19 02:01:03;;;;;;;8.90;3.27;;;2.50;99.90;;;;;;5011153;28;20661;-70
2021/03/19 02:04:08;;;;;;;6.63;3.20;;;2.50;99.90;;;;;;5006760;28;20285;-69
2021/03/19 02:07:13;;;;;;;6.60;3.90;;;2.60;99.90;;;;;;5008215;28;20311;-70
2021/03/19 02:10:17;;;;;;;6.00;3.37;;;2.70;99.90;;;;;;5014339;28;20656;-67
2021/03/19 02:13:22;;;;;;;12.47;3.60;;;2.70;99.90;;;;;;5015097;28;20190;-70
2021/03/19 02:16:27;;;;;;;8.57;3.50;;;2.70;99.90;;;;;;5012708;28;20225;-70
2021/03/19 02:19:32;;;;;;;7.13;3.10;;;2.60;99.90;;;;;;5014563;28;20198;-70
2021/03/19 02:22:37;;;;;;;8.37;3.30;;;2.70;99.90;;;;;;5010060;28;20244;-70
2021/03/19 02:25:42;;;;;;;7.13;3.87;;;2.80;99.90;;;;;;5012052;28;20657;-70
2021/03/19 02:28:47;;;;;;;12.00;3.93;;;2.80;99.90;;;;;;5013589;28;20922;-69
2021/03/19 02:31:14;;;;;;;9.53;3.50;;;2.90;99.90;;;;;;5014040;28;20221;-70
2021/03/19 02:33:56;;;;;;;9.10;4.00;;;2.90;99.90;;;;;;5014661;28;20225;-70
2021/03/19 02:36:26;;;;;;;9.13;3.90;;;2.80;99.90;;;;;;5014578;28;20289;-70
2021/03/19 02:38:54;;;;;;;13.33;4.83;;;2.80;99.90;;;;;;5015392;28;20189;-69
2021/03/19 02:41:22;;;;;;;8.77;4.70;;;2.80;99.90;;;;;;5012396;28;20198;-69
2021/03/19 02:43:49;;;;;;;5.90;4.33;;;2.70;99.90;;;;;;5010013;28;20284;-69
2021/03/19 02:46:17;;;;;;;9.83;4.37;;;2.70;99.90;;;;;;5012363;28;20221;-70
2021/03/19 02:48:44;;;;;;;11.17;4.50;;;2.60;99.90;;;;;;5011321;28;20198;-68
2021/03/19 02:51:12;;;;;;;10.33;5.13;;;2.50;99.90;;;;;;5012867;28;20206;-70
2021/03/19 02:53:40;;;;;;;9.07;5.00;;;2.50;99.90;;;;;;5009725;28;20252;-69
2021/03/19 02:56:09;;;;;;;7.77;4.83;;;2.50;99.90;;;;;;5010724;28;20281;-70
2021/03/19 02:58:37;;;;;;;9.47;4.93;;;2.40;99.90;;;;;;5012064;28;20202;-70
2021/03/19 03:01:06;;;;;;;10.03;4.60;;;2.40;99.90;;;;;;5007657;28;20256;-70
2021/03/19 03:03:34;;;;;;;8.07;5.27;;;2.30;99.90;;;;;;5009587;28;20186;-69
2021/03/19 03:06:02;;;;;;;12.50;5.43;;;2.20;99.90;;;;;;5010365;28;20309;-69
2021/03/19 03:08:31;;;;;;;15.20;5.57;;;2.20;99.90;;;;;;5010522;28;22232;-70
2021/03/19 03:10:59;;;;;;;12.80;5.83;;;2.10;99.90;;;;;;5011773;28;20296;-70
2021/03/19 03:13:27;;;;;;;18.93;5.70;;;2.20;99.90;;;;;;5010966;28;20202;-69
2021/03/19 03:15:55;;;;;;;6.40;4.93;;;2.10;99.90;;;;;;5009926;28;20317;-70
2021/03/19 03:18:23;;;;;;;9.73;5.20;;;2.10;99.90;;;;;;5011491;28;20277;-69
2021/03/19 03:20:53;;;;;;;8.57;5.60;;;2.10;99.90;;;;;;5025978;28;20674;-70
2021/03/19 03:23:23;;;;;;;9.67;5.90;;;2.10;99.90;;;;;;5009810;28;20194;-69
2021/03/19 03:25:52;;;;;;;14.33;6.40;;;2.10;99.90;;;;;;5008687;28;20210;-69
2021/03/19 03:28:20;;;;;;;12.67;6.60;;;2.10;99.90;;;;;;5011683;28;20209;-69
2021/03/19 03:30:50;;;;;;;11.03;5.47;;;2.10;99.90;;;;;;5008316;28;20208;-69
2021/03/19 03:33:19;;;;;;;13.20;6.00;;;2.00;99.90;;;;;;5007113;28;20228;-69
2021/03/19 03:35:48;;;;;;;12.97;5.83;;;2.00;99.90;;;;;;5010949;28;20196;-70
2021/03/19 03:38:19;;;;;;;15.33;6.63;;;2.00;99.90;;;;;;5011241;28;20195;-70
2021/03/19 03:40:51;;;;;;;14.03;6.37;;;2.00;99.90;;;;;;5011230;28;20198;-68
2021/03/19 03:43:20;;;;;;;9.97;5.90;;;2.10;99.90;;;;;;5011089;28;20198;-70
2021/03/19 03:45:48;;;;;;;14.53;6.50;;;2.10;99.90;;;;;;5009100;28;20242;-70
2021/03/19 03:48:18;;;;;;;14.20;6.77;;;2.10;99.90;;;;;;5010122;28;20931;-70
2021/03/19 03:50:46;;;;;;;13.90;7.07;;;2.20;99.90;;;;;;5008662;28;20270;-68
2021/03/19 03:53:14;;;;;;;10.07;6.43;;;2.20;99.90;;;;;;5009733;28;20222;-70
2021/03/19 03:55:42;;;;;;;15.03;6.97;;;2.20;99.90;;;;;;5010427;28;20190;-70
2021/03/19 03:58:12;;;;;;;14.93;6.93;;;2.20;99.90;;;;;;5005055;28;20201;-68
2021/03/19 04:00:42;;;;;;;13.47;5.80;;;2.20;99.90;;;;;;5009457;28;20190;-70
2021/03/19 04:03:11;;;;;;;12.07;7.33;;;2.10;99.90;;;;;;5008541;28;20323;-69
2021/03/19 04:05:41;;;;;;;15.43;7.07;;;2.10;99.90;;;;;;5009387;28;20218;-70
2021/03/19 04:08:10;;;;;;;8.67;6.37;;;2.00;99.90;;;;;;5003525;28;20224;-69
2021/03/19 04:10:39;;;;;;;13.80;7.57;;;1.90;99.90;;;;;;5023543;28;20198;-70
2021/03/19 04:13:08;;;;;;;14.10;6.90;;;1.80;99.90;;;;;;5010382;28;20221;-70
2021/03/19 04:15:35;;;;;;;10.30;6.90;;;1.70;99.90;;;;;;5008191;28;20217;-68
2021/03/19 04:18:06;;;;;;;12.30;7.37;;;1.70;99.90;;;;;;5008161;28;20272;-70
2021/03/19 04:20:35;;;;;;;13.67;7.80;;;1.60;99.90;;;;;;5005222;28;20198;-70
2021/03/19 04:23:16;;;;;;;16.33;8.00;;;1.60;99.90;;;;;;5010678;28;20190;-70
2021/03/19 04:25:43;;;;;;;14.80;8.17;;;1.50;99.90;;;;;;5007742;28;20234;-70
2021/03/19 04:28:15;;;;;;;17.90;8.77;;;1.50;99.90;;;;;;5009799;28;20245;-70
2021/03/19 04:30:44;;;;;;;12.80;8.17;;;1.50;99.90;;;;;;5002567;28;20283;-70
2021/03/19 04:33:15;;;;;;;15.50;8.47;;;1.50;99.90;;;;;;5010967;28;20194;-70
2021/03/19 04:35:43;;;;;;;12.73;8.40;;;1.50;99.90;;;;;;5008782;28;20623;-68
2021/03/19 04:38:14;;;;;;;15.60;8.53;;;1.40;99.90;;;;;;5009935;28;20216;-70
2021/03/19 04:40:43;;;;;;;17.93;8.13;;;1.40;99.90;;;;;;5008695;28;20244;-69
2021/03/19 04:43:11;;;;;;;19.83;9.37;;;1.40;99.90;;;;;;5005858;28;20257;-70
2021/03/19 04:45:39;;;;;;;13.07;8.73;;;1.40;99.90;;;;;;5021048;28;20198;-70
2021/03/19 04:48:07;;;;;;;16.50;9.27;;;1.30;99.90;;;;;;5007002;28;20233;-70
2021/03/19 04:50:36;;;;;;;16.80;9.00;;;1.40;99.90;;;;;;5007859;28;20230;-70
2021/03/19 04:53:04;;;;;;;18.00;9.37;;;1.40;99.90;;;;;;5009998;28;20661;-70
2021/03/19 04:55:31;;;;;;;15.17;10.00;;;1.40;99.90;;;;;;5008451;28;20198;-70
2021/03/19 04:57:59;;;;;;;15.20;9.43;;;1.40;99.90;;;;;;5008257;28;20194;-69
2021/03/19 05:00:27;;;;;;;18.83;9.43;;;1.40;99.90;;;;;;5008542;28;20233;-70
2021/03/19 05:02:55;;;;;;;17.17;10.03;;;1.30;99.90;;;;;;5009938;28;20186;-69
2021/03/19 05:05:25;;;;;;;19.60;10.03;;;1.20;99.90;;;;;;5008317;28;20202;-69
2021/03/19 05:07:54;;;;;;;17.67;10.17;;;1.20;99.90;;;;;;5009496;28;20190;-69
2021/03/19 05:10:24;;;;;;;23.17;10.73;;;1.20;99.90;;;;;;5008752;28;20588;-68
2021/03/19 05:12:51;;;;;;;24.57;10.83;;;1.10;99.90;;;;;;5009562;28;20221;-70
2021/03/19 05:15:19;;;;;;;16.07;10.53;;;1.10;99.90;;;;;;5010038;28;20198;-69
2021/03/19 05:17:47;;;;;;;16.10;10.87;;;1.20;99.90;;;;;;5009157;28;20198;-70
2021/03/19 05:20:17;;;;;;;20.07;11.40;;;1.10;99.90;;;;;;5008637;28;20727;-70
2021/03/19 05:22:44;;;;;;;25.13;11.83;;;1.00;99.90;;;;;;5007378;28;20214;-69
2021/03/19 05:25:15;;;;;;;16.97;11.80;;;1.00;99.90;;;;;;5007101;28;20649;-68
2021/03/19 05:27:44;;;;;;;23.47;11.93;;;1.00;99.90;;;;;;5007169;28;20314;-70
2021/03/19 05:30:15;;;;;;;21.47;11.57;;;0.90;99.90;;;;;;5007231;28;20665;-70
2021/03/19 05:32:42;;;;;;;18.10;11.10;;;0.90;99.90;;;;;;5009035;28;20197;-70
2021/03/19 05:35:13;;;;;;;23.33;13.03;;;0.90;99.90;;;;;;5007156;28;20281;-70
2021/03/19 05:37:40;;;;;;;22.50;12.80;;;0.80;99.90;;;;;;5009343;28;20269;-70
2021/03/19 05:40:14;;;;;;;26.87;14.00;;;0.90;99.90;;;;;;5007580;28;20284;-70
2021/03/19 05:42:42;;;;;;;27.40;14.27;;;0.90;99.90;;;;;;5008279;28;20550;-70
2021/03/19 05:45:23;;;;;;;27.73;14.80;;;0.90;99.90;;;;;;5007673;28;20190;-70
2021/03/19 05:47:53;;;;;;;27.37;14.00;;;0.90;99.90;;;;;;5006316;28;20206;-68
2021/03/19 05:50:26;;;;;;;22.63;13.90;;;0.80;99.90;;;;;;5007541;28;20206;-70
2021/03/19 05:52:55;;;;;;;26.50;14.60;;;0.80;99.90;;;;;;5008343;28;20190;-69
2021/03/19 05:55:25;;;;;;;29.40;15.10;;;0.80;99.90;;;;;;5008448;28;20247;-67
2021/03/19 05:58:00;;;;;;;27.50;15.47;;;0.70;99.90;;;;;;5006633;28;20672;-65
2021/03/19 06:00:28;;;;;;;30.13;15.60;;;0.70;99.90;;;;;;5006979;28;21757;-69
2021/03/19 06:02:56;;;;;;;32.97;16.37;;;0.70;99.90;;;;;;5005905;28;20289;-69
2021/03/19 06:05:28;;;;;;;33.37;16.90;;;0.60;99.90;;;;;;5005108;28;20232;-69
2021/03/19 06:07:57;;;;;;;26.90;15.50;;;0.60;99.90;;;;;;5005907;28;20694;-69
2021/03/19 06:10:36;;;;;;;27.23;15.83;;;0.60;99.90;;;;;;5008654;28;20739;-70
2021/03/19 06:13:20;;;;;;;29.23;16.30;;;0.60;99.90;;;;;;4998486;28;20226;-70
2021/03/19 06:15:50;;;;;;;33.10;16.03;;;0.60;99.90;;;;;;5007467;28;20257;-70
2021/03/19 06:18:24;;;;;;;32.00;15.60;;;0.70;99.90;;;;;;5000212;28;20209;-70
2021/03/19 06:20:56;;;;;;;32.47;16.23;;;0.60;99.90;;;;;;5012245;28;20234;-64
2021/03/19 06:23:25;;;;;;;30.67;16.53;;;0.70;99.90;;;;;;5012204;28;20294;-70
2021/03/19 06:26:02;;;;;;;37.13;17.17;;;0.70;99.90;;;;;;5006568;28;20229;-69
2021/03/19 06:28:33;;;;;;;36.07;17.30;;;0.80;99.90;;;;;;5007768;28;20260;-70
2021/03/19 06:31:23;;;;;;;31.50;17.77;;;0.90;99.90;;;;;;5009400;28;20202;-69
2021/03/19 06:34:06;;;;;;;29.33;16.47;;;1.10;99.90;;;;;;5011902;28;20253;-69
2021/03/19 06:36:49;;;;;;;29.63;16.47;;;1.20;99.90;;;;;;5010757;28;20209;-70
2021/03/19 06:39:22;;;;;;;34.40;16.73;;;1.30;99.90;;;;;;5021082;28;20657;-70
2021/03/19 06:42:11;;;;;;;31.57;16.27;;;1.40;99.90;;;;;;5009356;28;20193;-70
2021/03/19 06:44:41;;;;;;;32.17;16.33;;;1.50;99.90;;;;;;5009208;28;20194;-70
2021/03/19 06:47:16;;;;;;;26.33;16.17;;;1.70;99.90;;;;;;5010373;28;20243;-70
2021/03/19 06:49:52;;;;;;;24.17;14.77;;;1.80;99.90;;;;;;5010894;28;20713;-69
2021/03/19 06:52:26;;;;;;;22.67;13.97;;;2.00;99.90;;;;;;5010082;28;20608;-70
2021/03/19 06:54:58;;;;;;;20.10;12.67;;;2.10;99.90;;;;;;5008354;28;20240;-69
2021/03/19 06:57:27;;;;;;;20.37;12.57;;;2.30;99.90;;;;;;5010505;28;20225;-70
2021/03/19 06:59:58;;;;;;;17.97;11.90;;;2.50;99.90;;;;;;5011317;28;20230;-69
2021/03/19 07:02:52;;;;;;;19.97;12.87;;;2.70;99.90;;;;;;5008042;28;20309;-70
2021/03/19 07:05:50;;;;;;;18.17;11.47;;;2.90;99.90;;;;;;5007174;28;20198;-71
2021/03/19 07:08:29;;;;;;;18.00;10.90;;;3.30;99.90;;;;;;4991922;28;20238;-70
2021/03/19 07:11:06;;;;;;;19.93;10.97;;;3.50;99.90;;;;;;5012405;28;20264;-70
2021/03/19 07:13:51;;;;;;;14.97;10.30;;;3.90;99.90;;;;;;5012017;28;20685;-70
2021/03/19 07:16:26;;;;;;;17.27;9.80;;;4.30;99.90;;;;;;5025599;28;20639;-70
2021/03/19 07:19:13;;;;;;;14.20;9.00;;;4.70;99.90;;;;;;5027726;28;20217;-69
2021/03/19 07:22:02;;;;;;;14.83;9.40;;;5.00;99.90;;;;;;5012052;28;20206;-70
2021/03/19 07:25:02;;;;;;;14.27;8.73;;;5.20;99.90;;;;;;5001604;28;20183;-70
2021/03/19 07:27:47;;;;;;;14.07;9.90;;;5.50;99.90;;;;;;5003645;28;20244;-70
2021/03/19 07:30:25;;;;;;;14.10;8.70;;;5.70;99.90;;;;;;5006147;28;20196;-69
2021/03/19 07:33:26;;;;;;;17.40;8.90;;;6.10;99.90;;;;;;4989220;28;21502;-69
2021/03/19 07:36:16;;;;;;;11.93;7.57;;;5.90;99.90;;;;;;5008735;28;20563;-69
2021/03/19 07:39:31;;;;;;;14.23;7.93;;;5.90;99.90;;;;;;5011824;28;20241;-69
2021/03/19 07:42:25;;;;;;;11.70;7.03;;;6.20;99.90;;;;;;5009053;28;20651;-69
2021/03/19 07:45:04;;;;;;;10.63;6.60;;;6.20;99.90;;;;;;5022482;28;20213;-70
2021/03/19 07:47:49;;;;;;;8.13;6.77;;;6.00;99.90;;;;;;5006950;28;20217;-68
2021/03/19 07:50:43;;;;;;;10.43;6.57;;;6.10;99.90;;;;;;5006469;28;20190;-69
2021/03/19 07:53:46;;;;;;;8.43;6.43;;;6.60;99.90;;;;;;5005064;28;20202;-70
2021/03/19 07:56:23;;;;;;;8.53;6.27;;;6.80;99.90;;;;;;4978980;28;20221;-70
2021/03/19 07:59:03;;;;;;;9.77;6.50;;;6.90;99.90;;;;;;5010906;28;20248;-69
2021/03/19 08:01:37;;;;;;;7.70;5.70;;;6.70;99.90;;;;;;5001522;28;20251;-69
2021/03/19 08:04:23;;;;;;;5.50;5.03;;;7.00;99.90;;;;;;5006367;28;20190;-70
2021/03/19 08:06:57;;;;;;;10.70;5.40;;;7.40;99.90;;;;;;5011078;28;20198;-70
2021/03/19 08:09:40;;;;;;;8.27;4.73;;;7.60;99.90;;;;;;5009742;28;20595;-70
2021/03/19 08:12:12;;;;;;;5.20;4.67;;;7.50;99.90;;;;;;5008772;28;20198;-70
2021/03/19 08:15:04;;;;;;;5.53;4.60;;;7.60;99.90;;;;;;5011251;28;20259;-70
2021/03/19 08:17:55;;;;;;;4.97;4.50;;;8.10;99.90;;;;;;5009416;28;20233;-69
2021/03/19 08:20:38;;;;;;;6.43;3.93;;;8.10;99.90;;;;;;5024979;28;20194;-70
2021/03/19 08:23:14;;;;;;;4.43;4.13;;;8.50;99.90;;;;;;5009000;28;20201;-70
2021/03/19 08:25:47;;;;;;;4.53;4.10;;;9.00;99.90;;;;;;5010966;28;20194;-70
2021/03/19 08:28:24;;;;;;;7.43;4.30;;;9.40;99.90;;;;;;5010383;28;20256;-69
2021/03/19 08:30:58;;;;;;;3.83;3.53;;;9.70;99.90;;;;;;4999028;28;20577;-70
2021/03/19 08:33:45;;;;;;;3.83;3.53;;;9.50;99.90;;;;;;5009345;28;20190;-69
2021/03/19 08:36:21;;;;;;;3.80;3.50;;;9.10;99.90;;;;;;5008995;28;20205;-70
2021/03/19 08:38:53;;;;;;;3.80;3.47;;;9.10;99.90;;;;;;5007288;28;20186;-69
2021/03/19 08:41:23;;;;;;;5.10;3.80;;;8.90;99.90;;;;;;5008611;28;20202;-70
2021/03/19 08:43:54;;;;;;;4.00;3.60;;;9.20;99.90;;;;;;5004933;28;20203;-70
2021/03/19 08:46:25;;;;;;;3.70;3.40;;;9.70;99.90;;;;;;5006316;28;20190;-70
2021/03/19 08:48:57;;;;;;;4.53;3.50;;;10.30;99.90;;;;;;5008157;28;20198;-70
2021/03/19 08:51:39;;;;;;;3.67;3.37;;;10.80;99.90;;;;;;5007102;28;20194;-70
2021/03/19 08:54:20;;;;;;;4.43;3.30;;;10.20;99.90;;;;;;5001373;28;20585;-70
2021/03/19 08:57:32;;;;;;;5.73;3.70;;;10.90;99.90;;;;;;5004869;28;20285;-64
2021/03/19 08:59:59;;;;;;;3.80;3.50;;;10.50;99.90;;;;;;5009469;28;20888;-70
2021/03/19 09:02:59;;;;;;;3.90;3.50;;;10.50;99.90;;;;;;5008914;28;20222;-70
2021/03/19 09:05:31;;;;;;;3.57;3.20;;;10.40;99.90;;;;;;5006394;28;20226;-70
2021/03/19 09:08:20;;;;;;;5.17;3.40;;;10.20;99.90;;;;;;5009443;28;20222;-70
2021/03/19 09:11:04;;;;;;;4.30;3.10;;;10.30;99.90;;;;;;5008930;28;20272;-70
2021/03/19 09:13:32;;;;;;;3.73;3.40;;;10.40;99.90;;;;;;5010020;28;20267;-68
2021/03/19 09:16:34;;;;;;;4.47;3.10;;;10.30;99.90;;;;;;5005352;28;20233;-70
2021/03/19 09:19:02;;;;;;;3.53;3.00;;;10.10;99.90;;;;;;5007933;28;20286;-69
2021/03/19 09:21:32;;;;;;;3.00;2.67;;;10.00;99.90;;;;;;5009217;28;20182;-71
2021/03/19 09:24:15;;;;;;;3.47;2.53;;;10.30;99.90;;;;;;5007604;28;20590;-69
2021/03/19 09:26:51;;;;;;;2.63;2.53;;;10.40;99.90;;;;;;5008078;28;20746;-70
2021/03/19 09:29:35;;;;;;;2.53;2.27;;;10.40;99.90;;;;;;5008668;28;20770;-70
2021/03/19 09:32:38;;;;;;;2.57;2.40;;;11.00;99.90;;;;;;5007440;28;20297;-70
2021/03/19 09:35:33;;;;;;;2.70;2.50;;;11.40;99.90;;;;;;5011733;28;20194;-70
2021/03/19 09:38:04;;;;;;;2.70;1.90;;;11.80;99.90;;;;;;5004631;28;20677;-71
2021/03/19 09:40:48;;;;;;;2.07;1.97;;;12.00;99.90;;;;;;5009083;28;20194;-70
2021/03/19 09:43:37;;;;;;;2.17;2.03;;;12.10;99.90;;;;;;5007203;28;20193;-71
2021/03/19 09:46:13;;;;;;;2.83;1.80;;;12.70;99.90;;;;;;5009655;28;20205;-70
2021/03/19 09:49:00;;;;;;;2.20;2.00;;;12.60;99.90;;;;;;5006309;28;20668;-70
2021/03/19 09:51:43;;;;;;;2.37;2.20;;;11.60;99.90;;;;;;5010546;28;20201;-71
2021/03/19 09:54:36;;;;;;;2.23;2.13;;;11.40;99.90;;;;;;5013920;28;20198;-71
2021/03/19 09:57:25;;;;;;;3.60;1.90;;;11.70;99.90;;;;;;5021730;28;20198;-70
2021/03/19 09:59:59;;;;;;;2.30;2.20;;;11.60;99.90;;;;;;5018852;28;20248;-72
2021/03/19 10:02:30;;;;;;;1.80;1.80;;;11.70;99.90;;;;;;5011639;28;20277;-72
2021/03/19 10:05:13;;;;;;;1.70;1.70;;;11.60;99.90;;;;;;5011290;28;20196;-71
2021/03/19 10:07:46;;;;;;;2.20;2.10;;;11.90;99.90;;;;;;5010348;28;20696;-71
2021/03/19 10:10:29;;;;;;;2.23;2.03;;;11.70;99.70;;;;;;5024582;28;20715;-71
2021/03/19 10:13:10;;;;;;;2.33;2.20;;;12.60;99.90;;;;;;5002302;28;20202;-72
2021/03/19 10:15:38;;;;;;;2.03;1.93;;;13.30;99.90;;;;;;5012877;28;20255;-72
2021/03/19 10:18:10;;;;;;;3.93;2.47;;;12.70;99.90;;;;;;5011699;28;20186;-69
2021/03/19 10:20:40;;;;;;;2.20;2.10;;;12.40;98.00;;;;;;5011948;28;20679;-71
2021/03/19 10:23:16;;;;;;;2.47;2.30;;;12.60;97.90;;;;;;5020207;28;20193;-71
2021/03/19 10:25:45;;;;;;;2.17;2.07;;;13.10;98.90;;;;;;5011407;28;20272;-71
2021/03/19 10:28:22;;;;;;;2.20;2.10;;;12.40;97.20;;;;;;5015999;28;20217;-72
2021/03/19 10:30:54;;;;;;;2.70;2.50;;;12.50;97.00;;;;;;5013354;28;20288;-71
2021/03/19 10:33:25;;;;;;;2.40;2.30;;;12.40;98.30;;;;;;5013342;28;20289;-71
2021/03/19 10:36:00;;;;;;;3.40;2.67;;;12.50;99.70;;;;;;5013516;28;20202;-72
2021/03/19 10:38:37;;;;;;;2.83;2.63;;;12.70;97.60;;;;;;5013435;28;20193;-71
2021/03/19 10:41:19;;;;;;;3.03;2.50;;;13.20;96.90;;;;;;5012522;28;20564;-71
2021/03/19 10:43:55;;;;;;;2.70;2.50;;;12.30;96.60;;;;;;5012145;28;20233;-70
2021/03/19 10:46:33;;;;;;;2.63;2.53;;;11.80;97.70;;;;;;5007533;28;20209;-71
2021/03/19 10:49:06;;;;;;;3.17;2.90;;;12.30;97.60;;;;;;5013333;28;20201;-71
2021/03/19 10:51:42;;;;;;;2.60;2.50;;;11.80;96.90;;;;;;5012976;28;20190;-71
2021/03/19 10:54:16;;;;;;;2.90;2.80;;;12.40;97.80;;;;;;5012778;28;20292;-71
2021/03/19 10:56:50;;;;;;;3.77;2.80;;;12.50;98.30;;;;;;5012454;28;20267;-71
2021/03/19 10:59:32;;;;;;;2.80;2.60;;;13.00;97.40;;;;;;5012333;28;20186;-71
2021/03/19 11:02:21;;;;;;;2.50;2.30;;;13.10;97.70;;;;;;5008023;28;20194;-71
2021/03/19 11:05:13;;;;;;;3.37;2.80;;;12.80;97.00;;;;;;5012045;28;20255;-71
2021/03/19 11:07:44;;;;;;;2.50;2.40;;;12.40;97.30;;;;;;5008733;28;20305;-71
2021/03/19 11:10:28;;;;;;;4.43;2.63;;;12.70;99.00;;;;;;5011978;28;20190;-71
2021/03/19 11:13:21;;;;;;;4.40;2.70;;;12.70;97.70;;;;;;5010012;28;20256;-70
2021/03/19 11:15:53;;;;;;;3.13;2.90;;;12.60;97.80;;;;;;5011879;28;20221;-71
2021/03/19 11:18:26;;;;;;;2.90;2.70;;;12.00;97.70;;;;;;5003810;28;20197;-71
2021/03/19 11:20:58;;;;;;;2.70;2.50;;;12.20;98.40;;;;;;5008096;28;20198;-71
2021/03/19 11:23:36;;;;;;;3.23;2.90;;;12.60;97.50;;;;;;5004222;28;20199;-71
2021/03/19 11:26:23;;;;;;;2.60;2.47;;;12.40;98.10;;;;;;4998168;28;20657;-71
2021/03/19 11:29:07;;;;;;;3.20;3.00;;;12.80;99.00;;;;;;4999008;28;20577;-71
2021/03/19 11:31:53;;;;;;;2.90;2.70;;;13.20;99.50;;;;;;5004928;28;20687;-71
2021/03/19 11:34:33;;;;;;;3.20;2.70;;;11.90;96.90;;;;;;5007766;28;20190;-70
2021/03/19 11:37:04;;;;;;;2.50;2.40;;;12.20;99.50;;;;;;5009545;28;20222;-71
2021/03/19 11:39:52;;;;;;;2.37;2.27;;;12.50;98.20;;;;;;5008204;28;20949;-71
2021/03/19 11:42:21;;;;;;;2.40;2.30;;;12.30;97.40;;;;;;5008819;28;20190;-71
2021/03/19 11:44:51;;;;;;;4.30;2.80;;;12.30;98.70;;;;;;5006829;28;20704;-71
2021/03/19 11:47:22;;;;;;;2.57;2.47;;;12.90;98.30;;;;;;5008560;28;20241;-71
2021/03/19 11:49:53;;;;;;;2.67;2.50;;;12.60;97.30;;;;;;5006478;28;20186;-71
2021/03/19 11:52:21;;;;;;;3.37;2.40;;;12.20;96.70;;;;;;5009016;28;20194;-71
2021/03/19 11:54:49;;;;;;;2.90;2.60;;;12.20;97.40;;;;;;5009501;28;20194;-71
2021/03/19 11:57:17;;;;;;;2.70;2.60;;;12.60;99.90;;;;;;5009748;28;20190;-71
2021/03/19 11:59:45;;;;;;;5.07;2.97;;;13.20;99.90;;;;;;5006543;28;20194;-72
2021/03/19 12:02:25;;;;;;;2.40;2.30;;;13.90;99.80;;;;;;5009287;28;20226;-71
2021/03/19 12:04:54;;;;;;;2.97;2.77;;;13.90;96.70;;;;;;5006500;28;20214;-71
2021/03/19 12:07:22;;;;;;;3.03;2.83;;;13.90;99.40;;;;;;5005672;28;20260;-71
2021/03/19 12:09:51;;;;;;;3.70;2.73;;;13.40;99.70;;;;;;5010005;28;20251;-71
2021/03/19 12:12:23;;;;;;;3.37;2.90;;;12.90;97.50;;;;;;5010617;28;20198;-71
2021/03/19 12:14:53;;;;;;;3.00;2.80;;;12.50;99.90;;;;;;5011738;28;20648;-71
2021/03/19 12:17:22;;;;;;;3.53;2.70;;;13.20;99.90;;;;;;5008428;28;20313;-71
2021/03/19 12:19:51;;;;;;;3.07;2.67;;;13.60;98.50;;;;;;5007996;28;20190;-71
2021/03/19 12:22:20;;;;;;;7.80;2.87;;;13.50;99.90;;;;;;5010785;28;20209;-70
2021/03/19 12:24:48;;;;;;;3.33;2.80;;;12.90;97.10;;;;;;5008498;28;20737;-71
2021/03/19 12:27:15;;;;;;;3.50;3.23;;;12.30;97.50;;;;;;5007705;28;20210;-71
2021/03/19 12:29:43;;;;;;;3.60;3.23;;;11.20;98.40;;;;;;5009908;28;20236;-69
2021/03/19 12:32:10;;;;;;;3.80;3.00;;;11.60;99.90;;;;;;5009618;28;20198;-71
2021/03/19 12:34:39;;;;;;;3.50;3.20;;;11.50;98.20;;;;;;5004344;28;20685;-71
2021/03/19 12:37:06;;;;;;;5.17;3.20;;;11.50;98.90;;;;;;5009213;28;20197;-71
2021/03/19 12:39:35;;;;;;;3.40;3.13;;;11.60;99.90;;;;;;5010745;28;20716;-70
2021/03/19 12:42:03;;;;;;;3.20;3.00;;;12.00;99.90;;;;;;5009107;28;20304;-70
2021/03/19 12:44:30;;;;;;;3.13;2.90;;;12.30;99.90;;;;;;5008929;28;20229;-70
2021/03/19 12:46:58;;;;;;;3.03;2.83;;;12.00;98.70;;;;;;5010848;28;20194;-71
2021/03/19 12:49:26;;;;;;;3.13;3.03;;;12.30;98.60;;;;;;5008451;28;20798;-70
2021/03/19 12:51:53;;;;;;;3.93;2.90;;;12.40;97.90;;;;;;5010197;28;20260;-71
2021/03/19 12:54:21;;;;;;;2.80;2.60;;;11.90;97.40;;;;;;5009884;28;20228;-70
2021/03/19 12:56:50;;;;;;;4.47;2.77;;;11.80;98.40;;;;;;5009829;28;20608;-71
2021/03/19 12:59:17;;;;;;;4.43;2.90;;;12.00;98.20;;;;;;5008975;28;20824;-71
2021/03/19 13:01:45;;;;;;;2.90;2.70;;;12.10;99.00;;;;;;5010709;28;20320;-70
2021/03/19 13:04:13;;;;;;;3.07;2.90;;;12.10;99.90;;;;;;5006630;28;20198;-69
2021/03/19 13:06:42;;;;;;;2.93;2.83;;;12.40;99.90;;;;;;5008569;28;20288;-71
2021/03/19 13:09:14;;;;;;;3.13;2.87;;;12.20;97.90;;;;;;5009677;28;20240;-67
2021/03/19 13:11:41;;;;;;;3.00;2.70;;;11.90;99.90;;;;;;5009244;28;20197;-71
2021/03/19 13:14:10;;;;;;;3.10;2.90;;;12.10;98.50;;;;;;5010107;28;20190;-70
2021/03/19 13:16:38;;;;;;;4.17;3.23;;;11.90;98.70;;;;;;5010299;28;20265;-70
2021/03/19 13:19:06;;;;;;;3.10;2.80;;;11.60;98.40;;;;;;5007485;28;20240;-70
2021/03/19 13:21:34;;;;;;;3.93;2.80;;;11.40;98.30;;;;;;5007111;28;20198;-69
2021/03/19 13:24:02;;;;;;;8.40;3.00;;;11.20;98.30;;;;;;5009142;28;20593;-70
2021/03/19 13:26:30;;;;;;;2.90;2.70;;;10.80;98.80;;;;;;5008589;28;20872;-69
2021/03/19 13:28:57;;;;;;;5.03;2.90;;;11.00;99.90;;;;;;5008626;28;20305;-70